createdAt,value
2022-08-22T00:00:19.575Z,48.50
2022-08-22T00:03:10.012Z,36.60
2022-08-22T00:05:41.885Z,49.30
2022-08-22T00:08:36.393Z,48.60
2022-08-22T00:11:25.738Z,48.90
2022-08-22T00:14:20.052Z,48.10
2022-08-22T00:16:53.414Z,49.30
2022-08-22T00:19:51.516Z,37.00
2022-08-22T00:22:33.823Z,37.00
2022-08-22T00:25:32.340Z,36.90
2022-08-22T00:28:06.394Z,49.80
2022-08-22T00:30:44.402Z,49.50
2022-08-22T00:33:23.992Z,49.80
2022-08-22T00:36:04.692Z,48.90
2022-08-22T00:38:38.468Z,49.70
2022-08-22T00:41:28.918Z,49.60
2022-08-22T00:44:22.841Z,42.20
2022-08-22T00:47:05.898Z,37.50
2022-08-22T00:52:20.698Z,50.60
2022-08-22T00:55:06.071Z,49.30
2022-08-22T00:57:41.617Z,50.00
2022-08-22T01:00:13.313Z,37.90
2022-08-22T01:02:59.576Z,50.60
2022-08-22T01:05:38.596Z,49.50
2022-08-22T01:08:15.091Z,37.80
2022-08-22T01:10:58.288Z,49.70
2022-08-22T01:13:36.874Z,37.90
2022-08-22T01:16:34.626Z,50.90
2022-08-22T01:19:40.141Z,38.10
2022-08-22T01:22:21.656Z,50.90
2022-08-22T01:25:19.983Z,37.90
2022-08-22T01:28:10.276Z,50.20
2022-08-22T01:31:19.545Z,49.80
2022-08-22T01:34:13.421Z,51.40
2022-08-22T01:37:04.769Z,41.80
2022-08-22T01:39:49.022Z,49.80
2022-08-22T01:42:24.513Z,50.90
2022-08-22T01:47:27.429Z,50.00
2022-08-22T01:50:03.408Z,38.40
2022-08-22T01:52:48.379Z,49.80
2022-08-22T01:55:38.624Z,38.50
2022-08-22T01:58:17.856Z,38.60
2022-08-22T02:01:16.552Z,50.50
2022-08-22T02:04:19.101Z,38.60
2022-08-22T02:07:09.100Z,50.10
2022-08-22T02:09:44.217Z,45.90
2022-08-22T02:12:26.984Z,38.60
2022-08-22T02:15:32.561Z,51.50
2022-08-22T02:18:05.219Z,38.60
2022-08-22T02:20:47.355Z,38.80
2022-08-22T02:23:25.184Z,38.90
2022-08-22T02:26:01.847Z,50.80
2022-08-22T02:28:57.903Z,51.20
2022-08-22T02:31:42.440Z,39.10
2022-08-22T02:34:28.270Z,52.00
2022-08-22T02:37:20.318Z,44.10
2022-08-22T02:40:09.216Z,52.30
2022-08-22T02:42:46.288Z,51.90
2022-08-22T02:45:21.041Z,51.40
2022-08-22T02:47:59.695Z,52.40
2022-08-22T02:50:52.748Z,52.30
2022-08-22T02:53:50.581Z,39.30
2022-08-22T02:56:35.722Z,39.50
2022-08-22T02:59:27.224Z,51.90
2022-08-22T03:01:55.547Z,52.80
2022-08-22T03:06:58.480Z,39.60
2022-08-22T03:09:30.420Z,52.20
2022-08-22T03:12:20.158Z,39.70
2022-08-22T03:15:01.192Z,52.60
2022-08-22T03:17:39.081Z,39.90
2022-08-22T03:20:19.357Z,39.80
2022-08-22T03:22:51.224Z,39.90
2022-08-22T03:25:29.964Z,53.10
2022-08-22T03:28:02.029Z,53.00
2022-08-22T03:30:51.094Z,52.70
2022-08-22T03:33:23.784Z,40.20
2022-08-22T03:36:28.089Z,52.30
2022-08-22T03:39:17.118Z,52.30
2022-08-22T03:42:02.548Z,52.20
2022-08-22T03:47:18.978Z,41.70
2022-08-22T03:49:58.942Z,40.00
2022-08-22T03:55:23.032Z,40.10
2022-08-22T03:58:31.696Z,52.30
2022-08-22T04:01:39.155Z,40.30
2022-08-22T04:04:31.682Z,52.40
2022-08-22T04:10:26.471Z,52.30
2022-08-22T04:13:32.580Z,40.30
2022-08-22T04:16:43.754Z,52.30
2022-08-22T04:19:24.905Z,44.60
2022-08-22T04:36:01.045Z,40.70
2022-08-22T04:38:57.789Z,46.00
2022-08-22T04:41:36.301Z,52.70
2022-08-22T04:44:08.115Z,40.90
2022-08-22T04:47:05.096Z,53.10
2022-08-22T04:49:44.246Z,40.80
2022-08-22T04:54:59.823Z,53.00
2022-08-22T05:00:00.167Z,41.20
2022-08-22T05:02:27.857Z,54.50
2022-08-22T05:05:04.219Z,41.20
2022-08-22T05:07:46.282Z,41.10
2022-08-22T05:10:32.942Z,54.00
2022-08-22T05:13:18.197Z,41.30
2022-08-22T05:15:48.799Z,53.40
2022-08-22T05:18:29.568Z,41.10
2022-08-22T05:21:01.807Z,41.30
2022-08-22T05:23:43.286Z,41.30
2022-08-22T05:26:13.293Z,53.00
2022-08-22T05:28:52.541Z,41.10
2022-08-22T05:31:35.075Z,53.80
2022-08-22T05:34:10.349Z,41.00
2022-08-22T05:36:41.590Z,41.10
2022-08-22T05:39:18.580Z,41.00
2022-08-22T05:44:22.723Z,41.10
2022-08-22T05:47:13.447Z,51.00
2022-08-22T05:49:52.482Z,54.70
2022-08-22T05:52:38.166Z,53.30
2022-08-22T05:55:41.577Z,53.60
2022-08-22T05:58:36.524Z,41.30
2022-08-22T06:01:35.499Z,47.70
2022-08-22T06:04:14.641Z,48.70
2022-08-22T06:06:54.861Z,40.90
2022-08-22T06:09:35.738Z,53.90
2022-08-22T06:12:24.649Z,53.90
2022-08-22T06:14:56.152Z,54.20
2022-08-22T06:17:34.570Z,53.40
2022-08-22T06:20:05.353Z,41.30
2022-08-22T06:22:37.529Z,41.10
2022-08-22T06:25:13.680Z,41.10
2022-08-22T06:30:12.501Z,43.20
2022-08-22T06:32:58.542Z,47.20
2022-08-22T06:36:06.719Z,41.10
2022-08-22T06:39:01.234Z,42.40
2022-08-22T06:41:32.667Z,53.00
2022-08-22T06:44:01.711Z,41.40
2022-08-22T06:46:30.797Z,53.20
2022-08-22T06:49:00.242Z,41.20
2022-08-22T06:51:29.262Z,41.60
2022-08-22T06:54:01.245Z,41.40
2022-08-22T06:56:38.799Z,41.00
2022-08-22T06:59:11.847Z,41.20
2022-08-22T07:02:05.132Z,51.60
2022-08-22T07:07:01.647Z,39.60
2022-08-22T07:09:35.691Z,51.00
2022-08-22T07:12:11.296Z,48.60
2022-08-22T07:14:43.580Z,38.00
2022-08-22T07:17:19.372Z,38.90
2022-08-22T07:19:55.969Z,38.80
2022-08-22T07:22:30.452Z,36.50
2022-08-22T07:25:03.153Z,47.60
2022-08-22T07:27:38.946Z,35.70
2022-08-22T07:30:15.594Z,47.20
2022-08-22T07:33:26.479Z,35.20
2022-08-22T07:35:59.281Z,45.70
2022-08-22T07:41:21.102Z,45.90
2022-08-22T07:44:19.028Z,45.20
2022-08-22T07:47:00.631Z,44.60
2022-08-22T07:49:34.899Z,33.50
2022-08-22T07:52:09.616Z,43.70
2022-08-22T07:55:01.616Z,43.90
2022-08-22T07:57:36.105Z,32.70
2022-08-22T08:00:12.341Z,42.10
2022-08-22T08:02:46.448Z,43.30
2022-08-22T08:05:15.400Z,32.10
2022-08-22T08:07:45.602Z,41.50
2022-08-22T08:10:18.677Z,41.90
2022-08-22T08:12:52.800Z,41.10
2022-08-22T08:15:32.866Z,41.60
2022-08-22T08:18:05.524Z,42.20
2022-08-22T08:20:38.535Z,41.00
2022-08-22T08:23:09.938Z,40.70
2022-08-22T08:25:53.586Z,42.00
2022-08-22T08:28:38.017Z,40.40
2022-08-22T08:31:16.056Z,41.50
2022-08-22T08:33:47.143Z,30.50
2022-08-22T08:36:16.938Z,39.80
2022-08-22T08:38:55.359Z,39.90
2022-08-22T08:41:34.073Z,39.20
2022-08-22T08:44:22.523Z,40.40
2022-08-22T08:47:20.767Z,39.80
2022-08-22T08:50:14.661Z,39.40
2022-08-22T08:52:53.010Z,38.40
2022-08-22T08:55:30.851Z,38.30
2022-08-22T08:58:21.762Z,38.40
2022-08-22T09:01:11.343Z,39.00
2022-08-22T09:03:53.500Z,37.40
2022-08-22T09:06:50.669Z,37.50
2022-08-22T09:09:36.662Z,37.10
2022-08-22T09:12:03.482Z,28.10
2022-08-22T09:14:52.290Z,37.40
2022-08-22T09:17:37.873Z,27.50
2022-08-22T09:20:46.265Z,27.00
2022-08-22T09:23:55.707Z,34.90
2022-08-22T09:26:50.202Z,26.30
2022-08-22T09:29:54.664Z,33.30
2022-08-22T09:32:52.110Z,24.80
2022-08-22T09:35:25.444Z,24.90
2022-08-22T09:38:23.050Z,25.00
2022-08-22T09:41:22.411Z,25.00
2022-08-22T09:44:26.621Z,25.30
2022-08-22T09:47:24.361Z,32.40
2022-08-22T09:50:12.382Z,25.30
2022-08-22T09:53:31.048Z,24.90
2022-08-22T09:56:30.463Z,24.60
2022-08-22T09:59:14.797Z,29.60
2022-08-22T10:01:56.103Z,29.10
2022-08-22T10:04:33.136Z,22.80
2022-08-22T10:07:11.748Z,27.00
2022-08-22T10:09:57.136Z,25.90
2022-08-22T10:12:36.239Z,20.40
2022-08-22T10:15:16.433Z,20.10
2022-08-22T10:18:17.486Z,20.00
2022-08-22T10:21:05.186Z,18.70
2022-08-22T10:23:55.785Z,25.40
2022-08-22T10:26:38.522Z,24.90
2022-08-22T10:29:55.144Z,26.10
2022-08-22T10:32:34.434Z,25.90
2022-08-22T10:35:33.841Z,19.00
2022-08-22T10:38:10.926Z,19.20
2022-08-22T10:40:52.604Z,27.10
2022-08-22T10:43:32.994Z,19.30
2022-08-22T10:46:12.624Z,19.30
2022-08-22T10:48:59.755Z,19.00
2022-08-22T10:52:14.807Z,18.50
2022-08-22T10:54:43.076Z,24.00
2022-08-22T10:57:20.559Z,18.50
2022-08-22T11:00:11.555Z,18.10
2022-08-22T11:02:48.904Z,23.80
2022-08-22T11:05:25.872Z,17.80
2022-08-22T11:08:43.722Z,22.80
2022-08-22T11:11:19.379Z,16.20
2022-08-22T11:14:17.788Z,21.50
2022-08-22T11:17:27.480Z,23.20
2022-08-22T11:20:19.636Z,20.90
2022-08-22T11:23:12.239Z,16.40
2022-08-22T11:26:13.411Z,14.60
2022-08-22T11:29:13.287Z,20.30
2022-08-22T11:32:17.776Z,14.90
2022-08-22T11:34:57.368Z,14.40
2022-08-22T11:37:45.022Z,14.40
2022-08-22T11:40:34.297Z,13.80
2022-08-22T11:43:27.305Z,18.50
2022-08-22T11:46:13.726Z,19.80
2022-08-22T11:48:55.675Z,19.30
2022-08-22T11:51:47.402Z,13.00
2022-08-22T11:54:51.796Z,13.40
2022-08-22T11:57:32.719Z,19.20
2022-08-22T12:00:20.697Z,19.20
2022-08-22T12:03:16.362Z,13.60
2022-08-22T12:06:15.165Z,12.70
2022-08-22T12:08:49.502Z,12.30
2022-08-22T12:11:25.204Z,13.10
2022-08-22T12:14:06.049Z,11.80
2022-08-22T12:17:03.537Z,15.90
2022-08-22T12:19:32.688Z,11.30
2022-08-22T12:22:07.993Z,16.50
2022-08-22T12:25:05.470Z,10.70
2022-08-22T12:27:50.770Z,17.00
2022-08-22T12:30:35.044Z,18.20
2022-08-22T12:33:23.198Z,12.20
2022-08-22T12:36:04.814Z,11.80
2022-08-22T12:38:38.484Z,12.30
2022-08-22T12:41:28.414Z,12.40
2022-08-22T12:44:36.701Z,18.70
2022-08-22T12:47:34.825Z,12.10
2022-08-22T12:50:19.506Z,18.30
2022-08-22T12:52:58.671Z,12.80
2022-08-22T12:56:06.728Z,11.90
2022-08-22T12:58:58.264Z,11.20
2022-08-22T13:01:34.045Z,13.30
2022-08-22T13:04:08.292Z,9.30
2022-08-22T13:06:35.755Z,8.90
2022-08-22T13:09:36.977Z,8.70
2022-08-22T13:12:19.887Z,6.90
2022-08-22T13:14:52.262Z,6.90
2022-08-22T13:17:25.257Z,6.90
2022-08-22T13:20:22.135Z,6.10
2022-08-22T13:22:49.165Z,4.90
2022-08-22T13:25:25.560Z,5.90
2022-08-22T13:27:59.276Z,6.00
2022-08-22T13:30:37.321Z,6.30
2022-08-22T13:33:26.149Z,6.20
2022-08-22T13:35:57.292Z,4.50
2022-08-22T13:38:32.164Z,5.30
2022-08-22T13:41:01.951Z,5.00
2022-08-22T13:43:34.969Z,4.80
2022-08-22T13:46:10.950Z,4.90
2022-08-22T13:49:01.255Z,3.50
2022-08-22T13:51:46.688Z,4.00
2022-08-22T13:54:16.610Z,3.90
2022-08-22T13:57:04.890Z,4.30
2022-08-22T14:00:06.355Z,4.20
2022-08-22T14:03:08.200Z,3.70
2022-08-22T14:05:53.140Z,4.00
2022-08-22T14:08:22.733Z,2.80
2022-08-22T14:11:02.118Z,3.40
2022-08-22T14:13:36.792Z,3.80
2022-08-22T14:16:10.457Z,3.40
2022-08-22T14:19:06.075Z,3.90
2022-08-22T14:21:47.873Z,3.40
2022-08-22T14:24:20.481Z,3.10
2022-08-22T14:27:05.577Z,3.30
2022-08-22T14:29:50.421Z,2.20
2022-08-22T14:32:35.331Z,2.00
2022-08-22T14:35:31.398Z,2.70
2022-08-22T14:38:29.811Z,2.90
2022-08-22T14:41:06.431Z,2.10
2022-08-22T14:43:51.252Z,3.20
2022-08-22T14:46:42.181Z,2.90
2022-08-22T14:49:14.012Z,2.60
2022-08-22T14:51:50.876Z,2.80
2022-08-22T14:54:22.131Z,2.20
2022-08-22T14:56:51.564Z,2.90
2022-08-22T14:59:43.390Z,2.70
2022-08-22T15:02:17.390Z,1.80
2022-08-22T15:04:50.178Z,2.00
2022-08-22T15:07:30.938Z,2.00
2022-08-22T15:10:25.161Z,1.20
2022-08-22T15:12:55.510Z,1.00
2022-08-22T15:15:30.940Z,1.60
2022-08-22T15:17:58.590Z,1.00
2022-08-22T15:20:31.306Z,2.00
2022-08-22T15:23:23.200Z,2.30
2022-08-22T15:26:03.721Z,1.30
2022-08-22T15:28:52.605Z,1.40
2022-08-22T15:31:20.507Z,1.60
2022-08-22T15:33:48.481Z,1.60
2022-08-22T15:36:24.245Z,1.70
2022-08-22T15:38:54.069Z,1.20
2022-08-22T15:41:36.491Z,1.00
2022-08-22T15:44:14.809Z,1.00
2022-08-22T15:47:10.709Z,1.00
2022-08-22T15:49:50.873Z,1.00
2022-08-22T15:53:13.407Z,1.80
2022-08-22T15:56:18.473Z,3.00
2022-08-22T15:58:49.680Z,2.80
2022-08-22T16:01:25.328Z,3.30
2022-08-22T16:04:14.769Z,3.40
2022-08-22T16:06:50.590Z,4.10
2022-08-22T16:09:38.162Z,3.60
2022-08-22T16:12:31.104Z,3.20
2022-08-22T16:14:59.955Z,3.20
2022-08-22T16:17:29.395Z,3.20
2022-08-22T16:20:09.882Z,3.70
2022-08-22T16:22:58.795Z,3.30
2022-08-22T16:25:44.298Z,3.60
2022-08-22T16:28:28.239Z,2.40
2022-08-22T16:31:24.525Z,3.10
2022-08-22T16:33:51.447Z,2.90
2022-08-22T16:36:39.513Z,3.40
2022-08-22T16:39:32.498Z,2.20
2022-08-22T16:42:22.936Z,2.20
2022-08-22T16:45:02.764Z,2.80
2022-08-22T16:47:36.285Z,2.90
2022-08-22T16:50:22.457Z,3.00
2022-08-22T16:52:58.120Z,2.50
2022-08-22T16:55:30.928Z,2.90
2022-08-22T16:58:13.111Z,2.60
2022-08-22T17:01:06.278Z,3.30
2022-08-22T17:03:49.717Z,3.50
2022-08-22T17:06:32.233Z,3.80
2022-08-22T17:09:20.348Z,3.60
2022-08-22T17:12:14.703Z,3.90
2022-08-22T17:14:53.775Z,4.00
2022-08-22T17:17:59.615Z,4.50
2022-08-22T17:21:10.393Z,3.90
2022-08-22T17:23:57.949Z,4.40
2022-08-22T17:26:33.991Z,4.30
2022-08-22T17:29:22.967Z,8.90
2022-08-22T17:32:16.657Z,4.80
2022-08-22T17:35:10.975Z,5.60
2022-08-22T17:37:56.420Z,6.70
2022-08-22T17:40:28.637Z,6.10
2022-08-22T17:43:08.526Z,10.30
2022-08-22T17:45:56.532Z,6.20
2022-08-22T17:48:48.073Z,6.20
2022-08-22T17:51:36.696Z,6.20
2022-08-22T17:54:35.860Z,6.60
2022-08-22T17:57:13.433Z,6.70
2022-08-22T17:59:50.028Z,7.00
2022-08-22T18:02:33.849Z,7.20
2022-08-22T18:05:16.570Z,7.70
2022-08-22T18:07:56.852Z,8.00
2022-08-22T18:10:26.625Z,14.10
2022-08-22T18:13:04.778Z,9.10
2022-08-22T18:15:46.248Z,15.10
2022-08-22T18:18:34.786Z,15.60
2022-08-22T18:21:11.993Z,10.50
2022-08-22T18:23:47.321Z,11.00
2022-08-22T18:26:45.102Z,11.80
2022-08-22T18:29:24.965Z,12.50
2022-08-22T18:32:00.155Z,12.50
2022-08-22T18:34:45.130Z,19.50
2022-08-22T18:37:30.440Z,19.60
2022-08-22T18:40:01.254Z,20.80
2022-08-22T18:42:47.629Z,21.40
2022-08-22T18:45:43.831Z,21.80
2022-08-22T18:48:21.465Z,21.60
2022-08-22T18:50:49.774Z,23.10
2022-08-22T18:53:39.436Z,16.30
2022-08-22T18:56:21.813Z,17.20
2022-08-22T18:59:06.006Z,17.10
2022-08-22T19:02:05.315Z,24.70
2022-08-22T19:04:56.652Z,25.70
2022-08-22T19:08:11.652Z,24.60
2022-08-22T19:11:09.950Z,26.40
2022-08-22T19:13:57.280Z,25.00
2022-08-22T19:16:47.654Z,25.30
2022-08-22T19:19:52.991Z,25.10
2022-08-22T19:22:30.333Z,26.70
2022-08-22T19:25:26.914Z,26.00
2022-08-22T19:28:09.472Z,27.50
2022-08-22T19:30:40.765Z,26.80
2022-08-22T19:33:38.453Z,22.90
2022-08-22T19:36:09.977Z,27.60
2022-08-22T19:38:57.603Z,24.90
2022-08-22T19:41:53.117Z,29.00
2022-08-22T19:44:19.942Z,29.10
2022-08-22T19:47:03.093Z,28.70
2022-08-22T19:49:34.729Z,29.10
2022-08-22T19:52:16.481Z,29.00
2022-08-22T19:55:09.644Z,22.60
2022-08-22T19:57:56.513Z,29.90
2022-08-22T20:00:56.285Z,23.20
2022-08-22T20:03:49.393Z,31.10
2022-08-22T20:06:43.902Z,31.10
2022-08-22T20:09:35.398Z,26.20
2022-08-22T20:12:19.229Z,31.00
2022-08-22T20:14:47.774Z,31.70
2022-08-22T20:17:14.673Z,31.40
2022-08-22T20:23:06.914Z,33.00
2022-08-22T20:25:52.937Z,33.70
2022-08-22T20:28:36.353Z,24.80
2022-08-22T20:31:10.459Z,31.30
2022-08-22T20:33:41.094Z,34.20
2022-08-22T20:36:27.519Z,33.60
2022-08-22T20:39:01.599Z,25.60
2022-08-22T20:41:41.048Z,25.70
2022-08-22T20:44:15.833Z,25.80
2022-08-22T20:47:02.330Z,25.90
2022-08-22T20:49:35.864Z,32.70
2022-08-22T20:52:20.417Z,34.50
2022-08-22T20:55:10.985Z,26.10
2022-08-22T20:57:51.037Z,35.10
2022-08-22T21:00:21.234Z,36.00
2022-08-22T21:03:13.200Z,35.50
2022-08-22T21:05:43.104Z,26.40
2022-08-22T21:08:19.128Z,26.50
2022-08-22T21:11:19.855Z,35.90
2022-08-22T21:16:17.895Z,26.50
2022-08-22T21:18:50.287Z,26.60
2022-08-22T21:21:29.767Z,35.50
2022-08-22T21:24:01.350Z,26.60
2022-08-22T21:26:45.453Z,35.70
2022-08-22T21:29:12.164Z,36.50
2022-08-22T21:31:48.507Z,28.90
2022-08-22T21:34:24.313Z,26.60
2022-08-22T21:36:53.600Z,36.40
2022-08-22T21:39:31.947Z,30.00
2022-08-22T21:42:01.864Z,36.40
2022-08-22T21:44:31.718Z,26.30
2022-08-22T21:47:30.930Z,26.40
2022-08-22T21:50:13.533Z,35.20
2022-08-22T21:52:59.855Z,35.60
2022-08-22T21:55:27.999Z,34.80
2022-08-22T21:58:35.193Z,36.30
2022-08-22T22:01:27.424Z,34.80
2022-08-22T22:06:21.652Z,36.30
2022-08-22T22:08:48.996Z,36.50
2022-08-22T22:11:16.995Z,35.70
2022-08-22T22:13:44.964Z,36.50
2022-08-22T22:16:12.587Z,36.80
2022-08-22T22:18:40.525Z,36.90
2022-08-22T22:21:08.457Z,36.90
2022-08-22T22:26:04.703Z,27.00
2022-08-22T22:28:33.956Z,27.20
2022-08-22T22:33:31.908Z,36.10
2022-08-22T22:36:05.396Z,27.20
2022-08-22T22:40:59.638Z,34.20
2022-08-22T22:43:27.684Z,36.50
2022-08-22T22:50:53.075Z,36.90
2022-08-22T22:53:21.489Z,27.60
2022-08-22T22:56:06.098Z,37.10
2022-08-22T22:58:35.607Z,27.60
2022-08-22T23:01:23.530Z,28.50
2022-08-22T23:03:54.724Z,27.70
2022-08-22T23:06:23.617Z,33.60
2022-08-22T23:08:50.725Z,38.40
2022-08-22T23:11:24.242Z,37.90
2022-08-22T23:13:51.216Z,37.30
2022-08-22T23:16:24.712Z,32.90
2022-08-22T23:21:25.138Z,37.10
2022-08-22T23:23:54.259Z,27.60
2022-08-22T23:28:48.646Z,37.80
2022-08-22T23:31:26.224Z,37.70
2022-08-22T23:33:53.024Z,36.10
2022-08-22T23:36:22.020Z,37.80
2022-08-22T23:38:50.448Z,27.30
2022-08-22T23:41:18.912Z,27.30
2022-08-22T23:43:49.541Z,27.20
2022-08-22T23:46:17.833Z,27.30
2022-08-22T23:48:45.176Z,34.20
2022-08-22T23:51:13.955Z,27.30
2022-08-22T23:53:43.746Z,33.60
2022-08-22T23:56:19.895Z,37.80
2022-08-22T23:58:47.494Z,37.40
